PWSweather.com
Personal Weather Stations
Station Observations
NAGEO265NE
Bedzin GrodziecPL 42-506

Bedzin GrodziecPL 42-506

Lat: 50.347, Lon: 19.079

Elevation: 948

Station Type: WH1080

http://www.meteo-grodziec.pl/

High Low Average
Temperature 24.6°F-4.1°C 17.6°F-8.0°C 21.9°F-5.6°C
Dew Point 21.9°F-5.6°C 16.0°F-8.9°C 19.4°F-7.0°C
Winds 8.0 mph 12.9 kmh Calm Calm 4.0 mph E6.4 kmh E
Wind Gusts 18.0 mph29.0 kmh 1.0 mph1.6 kmh 10.0 mph16.1 kmh
Humidity 94% 86% 90%
Pressure 29.84 in1010.5 mb 29.68 in1005.1 mb -
Precipitation 0.00 in0.0 mm - -
Hour Temp Dew Point Humidity Winds Wind Gusts Pressure Precip Precip Rate Daily Precip Total
12:00 AM 18.1°F-7.7°C 16.7°F-8.5°C 94% 1.0 mph E1.6 kmh E 6.0 mph9.7 kmh 29.84 in1010.5 mb 0.00 in0.0 mm 0.00 in0.0 mm 0.00 in0.0 mm
12:05 AM 18.1°F-7.7°C 16.7°F-8.5°C 94% 1.0 mph E1.6 kmh E 3.0 mph4.8 kmh 29.84 in1010.5 mb 0.00 in0.0 mm 0.00 in0.0 mm 0.00 in0.0 mm
12:10 AM 18.1°F-7.7°C 16.7°F-8.5°C 94% Calm Calm 2.0 mph3.2 kmh 29.83 in1010.2 mb 0.00 in0.0 mm 0.00 in0.0 mm 0.00 in0.0 mm
12:15 AM 18.1°F-7.7°C 16.7°F-8.5°C 94% Calm Calm 2.0 mph3.2 kmh 29.83 in1010.2 mb 0.00 in0.0 mm 0.00 in0.0 mm 0.00 in0.0 mm
12:20 AM 18.0°F-7.8°C 16.3°F-8.7°C 93% 1.0 mph ENE1.6 kmh ENE 4.0 mph6.4 kmh 29.83 in1010.2 mb 0.00 in0.0 mm 0.00 in0.0 mm 0.00 in0.0 mm
12:25 AM 17.8°F-7.9°C 16.2°F-8.8°C 93% 2.0 mph E3.2 kmh E 7.0 mph11.3 kmh 29.83 in1010.2 mb 0.00 in0.0 mm 0.00 in0.0 mm 0.00 in0.0 mm
12:30 AM 17.8°F-7.9°C 16.0°F-8.9°C 93% 3.0 mph E4.8 kmh E 7.0 mph11.3 kmh 29.82 in1009.8 mb 0.00 in0.0 mm 0.00 in0.0 mm 0.00 in0.0 mm
12:35 AM 17.8°F-7.9°C 16.0°F-8.9°C 93% 2.0 mph E3.2 kmh E 7.0 mph11.3 kmh 29.82 in1009.8 mb 0.00 in0.0 mm 0.00 in0.0 mm 0.00 in0.0 mm
12:40 AM 17.6°F-8.0°C 16.0°F-8.9°C 93% 2.0 mph E3.2 kmh E 8.0 mph12.9 kmh 29.82 in1009.8 mb 0.00 in0.0 mm 0.00 in0.0 mm 0.00 in0.0 mm
12:45 AM 17.6°F-8.0°C 16.0°F-8.9°C 93% 2.0 mph E3.2 kmh E 8.0 mph12.9 kmh 29.82 in1009.8 mb 0.00 in0.0 mm 0.00 in0.0 mm 0.00 in0.0 mm
12:50 AM 17.8°F-7.9°C 16.0°F-8.9°C 93% 2.0 mph E3.2 kmh E 6.0 mph9.7 kmh 29.82 in1009.8 mb 0.00 in0.0 mm 0.00 in0.0 mm 0.00 in0.0 mm
12:55 AM 17.8°F-7.9°C 16.2°F-8.8°C 93% 1.0 mph E1.6 kmh E 6.0 mph9.7 kmh 29.82 in1009.8 mb 0.00 in0.0 mm 0.00 in0.0 mm 0.00 in0.0 mm
01:00 AM 18.0°F-7.8°C 16.2°F-8.8°C 93% 1.0 mph ESE1.6 kmh ESE 4.0 mph6.4 kmh 29.81 in1009.5 mb 0.00 in0.0 mm 0.00 in0.0 mm 0.00 in0.0 mm
01:05 AM 18.0°F-7.8°C 16.2°F-8.8°C 93% 1.0 mph ESE1.6 kmh ESE 4.0 mph6.4 kmh 29.81 in1009.5 mb 0.00 in0.0 mm 0.00 in0.0 mm 0.00 in0.0 mm
01:10 AM 18.0°F-7.8°C 16.2°F-8.8°C 93% 1.0 mph SE1.6 kmh SE 4.0 mph6.4 kmh 29.81 in1009.5 mb 0.00 in0.0 mm 0.00 in0.0 mm 0.00 in0.0 mm
01:15 AM 18.0°F-7.8°C 16.2°F-8.8°C 93% 1.0 mph SE1.6 kmh SE 4.0 mph6.4 kmh 29.81 in1009.5 mb 0.00 in0.0 mm 0.00 in0.0 mm 0.00 in0.0 mm
01:20 AM 18.0°F-7.8°C 16.3°F-8.7°C 93% 1.0 mph SE1.6 kmh SE 4.0 mph6.4 kmh 29.81 in1009.5 mb 0.00 in0.0 mm 0.00 in0.0 mm 0.00 in0.0 mm
01:25 AM 18.1°F-7.7°C 16.3°F-8.7°C 93% Calm Calm 2.0 mph3.2 kmh 29.81 in1009.5 mb 0.00 in0.0 mm 0.00 in0.0 mm 0.00 in0.0 mm
01:30 AM 18.1°F-7.7°C 16.3°F-8.7°C 93% Calm Calm 2.0 mph3.2 kmh 29.80 in1009.1 mb 0.00 in0.0 mm 0.00 in0.0 mm 0.00 in0.0 mm
01:35 AM 18.1°F-7.7°C 16.5°F-8.6°C 93% Calm Calm 2.0 mph3.2 kmh 29.80 in1009.1 mb 0.00 in0.0 mm 0.00 in0.0 mm 0.00 in0.0 mm
01:40 AM 18.3°F-7.6°C 16.7°F-8.5°C 93% Calm Calm 1.0 mph1.6 kmh 29.80 in1009.1 mb 0.00 in0.0 mm 0.00 in0.0 mm 0.00 in0.0 mm
01:45 AM 18.3°F-7.6°C 16.7°F-8.5°C 93% 1.0 mph ENE1.6 kmh ENE 5.0 mph8.0 kmh 29.80 in1009.1 mb 0.00 in0.0 mm 0.00 in0.0 mm 0.00 in0.0 mm
01:50 AM 18.5°F-7.5°C 16.9°F-8.4°C 93% 1.0 mph ENE1.6 kmh ENE 5.0 mph8.0 kmh 29.80 in1009.1 mb 0.00 in0.0 mm 0.00 in0.0 mm 0.00 in0.0 mm
01:55 AM 18.7°F-7.4°C 16.9°F-8.4°C 93% 1.0 mph ENE1.6 kmh ENE 2.0 mph3.2 kmh 29.80 in1009.1 mb 0.00 in0.0 mm 0.00 in0.0 mm 0.00 in0.0 mm
02:00 AM 18.9°F-7.3°C 17.1°F-8.3°C 93% Calm Calm 2.0 mph3.2 kmh 29.80 in1009.1 mb 0.00 in0.0 mm 0.00 in0.0 mm 0.00 in0.0 mm
02:05 AM 18.9°F-7.3°C 17.1°F-8.3°C 93% Calm Calm 3.0 mph4.8 kmh 29.80 in1009.1 mb 0.00 in0.0 mm 0.00 in0.0 mm 0.00 in0.0 mm
02:10 AM 18.9°F-7.3°C 17.2°F-8.2°C 93% 1.0 mph ENE1.6 kmh ENE 3.0 mph4.8 kmh 29.79 in1008.8 mb 0.00 in0.0 mm 0.00 in0.0 mm 0.00 in0.0 mm
02:15 AM 19.0°F-7.2°C 17.2°F-8.2°C 93% Calm Calm 3.0 mph4.8 kmh 29.79 in1008.8 mb 0.00 in0.0 mm 0.00 in0.0 mm 0.00 in0.0 mm
02:20 AM 19.0°F-7.2°C 17.4°F-8.1°C 93% Calm Calm 2.0 mph3.2 kmh 29.79 in1008.8 mb 0.00 in0.0 mm 0.00 in0.0 mm 0.00 in0.0 mm
02:25 AM 19.2°F-7.1°C 17.4°F-8.1°C 93% Calm Calm 2.0 mph3.2 kmh 29.79 in1008.8 mb 0.00 in0.0 mm 0.00 in0.0 mm 0.00 in0.0 mm
02:30 AM 19.2°F-7.1°C 17.4°F-8.1°C 93% Calm Calm 2.0 mph3.2 kmh 29.79 in1008.8 mb 0.00 in0.0 mm 0.00 in0.0 mm 0.00 in0.0 mm
02:35 AM 19.2°F-7.1°C 17.6°F-8.0°C 93% Calm Calm 3.0 mph4.8 kmh 29.78 in1008.5 mb 0.00 in0.0 mm 0.00 in0.0 mm 0.00 in0.0 mm
02:40 AM 19.4°F-7.0°C 17.8°F-7.9°C 93% 1.0 mph ENE1.6 kmh ENE 3.0 mph4.8 kmh 29.78 in1008.5 mb 0.00 in0.0 mm 0.00 in0.0 mm 0.00 in0.0 mm
02:45 AM 19.4°F-7.0°C 17.8°F-7.9°C 93% 1.0 mph E1.6 kmh E 3.0 mph4.8 kmh 29.78 in1008.5 mb 0.00 in0.0 mm 0.00 in0.0 mm 0.00 in0.0 mm
02:50 AM 19.6°F-6.9°C 18.0°F-7.8°C 93% Calm Calm 3.0 mph4.8 kmh 29.78 in1008.5 mb 0.00 in0.0 mm 0.00 in0.0 mm 0.00 in0.0 mm
02:55 AM 19.6°F-6.9°C 18.1°F-7.7°C 94% Calm Calm 2.0 mph3.2 kmh 29.78 in1008.5 mb 0.00 in0.0 mm 0.00 in0.0 mm 0.00 in0.0 mm
03:00 AM 19.8°F-6.8°C 18.3°F-7.6°C 94% Calm Calm 3.0 mph4.8 kmh 29.78 in1008.5 mb 0.00 in0.0 mm 0.00 in0.0 mm 0.00 in0.0 mm
03:05 AM 19.9°F-6.7°C 18.5°F-7.5°C 94% Calm Calm 4.0 mph6.4 kmh 29.78 in1008.5 mb 0.00 in0.0 mm 0.00 in0.0 mm 0.00 in0.0 mm
03:10 AM 20.1°F-6.6°C 18.7°F-7.4°C 94% 1.0 mph ENE1.6 kmh ENE 4.0 mph6.4 kmh 29.77 in1008.1 mb 0.00 in0.0 mm 0.00 in0.0 mm 0.00 in0.0 mm
03:15 AM 20.1°F-6.6°C 18.7°F-7.4°C 94% 1.0 mph E1.6 kmh E 6.0 mph9.7 kmh 29.77 in1008.1 mb 0.00 in0.0 mm 0.00 in0.0 mm 0.00 in0.0 mm
03:20 AM 20.3°F-6.5°C 18.9°F-7.3°C 94% 1.0 mph E1.6 kmh E 6.0 mph9.7 kmh 29.77 in1008.1 mb 0.00 in0.0 mm 0.00 in0.0 mm 0.00 in0.0 mm
03:25 AM 20.3°F-6.5°C 18.9°F-7.3°C 94% 2.0 mph E3.2 kmh E 7.0 mph11.3 kmh 29.77 in1008.1 mb 0.00 in0.0 mm 0.00 in0.0 mm 0.00 in0.0 mm
03:30 AM 20.3°F-6.5°C 18.9°F-7.3°C 94% 3.0 mph E4.8 kmh E 9.0 mph14.5 kmh 29.77 in1008.1 mb 0.00 in0.0 mm 0.00 in0.0 mm 0.00 in0.0 mm
03:35 AM 20.3°F-6.5°C 18.9°F-7.3°C 94% 3.0 mph E4.8 kmh E 9.0 mph14.5 kmh 29.77 in1008.1 mb 0.00 in0.0 mm 0.00 in0.0 mm 0.00 in0.0 mm
03:40 AM 20.5°F-6.4°C 19.0°F-7.2°C 94% 2.0 mph E3.2 kmh E 9.0 mph14.5 kmh 29.77 in1008.1 mb 0.00 in0.0 mm 0.00 in0.0 mm 0.00 in0.0 mm
03:45 AM 20.7°F-6.3°C 19.2°F-7.1°C 94% 3.0 mph E4.8 kmh E 9.0 mph14.5 kmh 29.77 in1008.1 mb 0.00 in0.0 mm 0.00 in0.0 mm 0.00 in0.0 mm
03:50 AM 20.7°F-6.3°C 19.2°F-7.1°C 94% 3.0 mph E4.8 kmh E 9.0 mph14.5 kmh 29.77 in1008.1 mb 0.00 in0.0 mm 0.00 in0.0 mm 0.00 in0.0 mm
03:55 AM 20.7°F-6.3°C 19.2°F-7.1°C 94% 1.0 mph E1.6 kmh E 7.0 mph11.3 kmh 29.77 in1008.1 mb 0.00 in0.0 mm 0.00 in0.0 mm 0.00 in0.0 mm
04:00 AM 20.7°F-6.3°C 19.2°F-7.1°C 94% Calm Calm 3.0 mph4.8 kmh 29.76 in1007.8 mb 0.00 in0.0 mm 0.00 in0.0 mm 0.00 in0.0 mm
04:05 AM 20.7°F-6.3°C 18.9°F-7.3°C 93% Calm Calm 3.0 mph4.8 kmh 29.77 in1008.1 mb 0.00 in0.0 mm 0.00 in0.0 mm 0.00 in0.0 mm
04:10 AM 20.7°F-6.3°C 18.9°F-7.3°C 93% Calm Calm 3.0 mph4.8 kmh 29.76 in1007.8 mb 0.00 in0.0 mm 0.00 in0.0 mm 0.00 in0.0 mm
04:15 AM 20.7°F-6.3°C 18.9°F-7.3°C 93% 1.0 mph E1.6 kmh E 3.0 mph4.8 kmh 29.76 in1007.8 mb 0.00 in0.0 mm 0.00 in0.0 mm 0.00 in0.0 mm
04:20 AM 20.7°F-6.3°C 19.0°F-7.2°C 93% 1.0 mph E1.6 kmh E 3.0 mph4.8 kmh 29.76 in1007.8 mb 0.00 in0.0 mm 0.00 in0.0 mm 0.00 in0.0 mm
04:25 AM 20.7°F-6.3°C 19.0°F-7.2°C 93% Calm Calm 2.0 mph3.2 kmh 29.76 in1007.8 mb 0.00 in0.0 mm 0.00 in0.0 mm 0.00 in0.0 mm
04:30 AM 20.8°F-6.2°C 19.0°F-7.2°C 93% Calm Calm 1.0 mph1.6 kmh 29.76 in1007.8 mb 0.00 in0.0 mm 0.00 in0.0 mm 0.00 in0.0 mm
04:35 AM 20.8°F-6.2°C 19.0°F-7.2°C 93% Calm Calm 3.0 mph4.8 kmh 29.76 in1007.8 mb 0.00 in0.0 mm 0.00 in0.0 mm 0.00 in0.0 mm
04:40 AM 20.8°F-6.2°C 19.2°F-7.1°C 93% 1.0 mph E1.6 kmh E 4.0 mph6.4 kmh 29.76 in1007.8 mb 0.00 in0.0 mm 0.00 in0.0 mm 0.00 in0.0 mm
04:45 AM 20.8°F-6.2°C 19.2°F-7.1°C 93% 1.0 mph E1.6 kmh E 4.0 mph6.4 kmh 29.75 in1007.5 mb 0.00 in0.0 mm 0.00 in0.0 mm 0.00 in0.0 mm
04:50 AM 21.0°F-6.1°C 19.2°F-7.1°C 93% Calm Calm 5.0 mph8.0 kmh 29.75 in1007.5 mb 0.00 in0.0 mm 0.00 in0.0 mm 0.00 in0.0 mm
04:55 AM 21.0°F-6.1°C 19.4°F-7.0°C 93% 1.0 mph E1.6 kmh E 5.0 mph8.0 kmh 29.75 in1007.5 mb 0.00 in0.0 mm 0.00 in0.0 mm 0.00 in0.0 mm
05:00 AM 21.0°F-6.1°C 19.2°F-7.1°C 93% 2.0 mph E3.2 kmh E 10.0 mph16.1 kmh 29.75 in1007.5 mb 0.00 in0.0 mm 0.00 in0.0 mm 0.00 in0.0 mm
05:05 AM 20.8°F-6.2°C 19.2°F-7.1°C 93% 3.0 mph E4.8 kmh E 10.0 mph16.1 kmh 29.75 in1007.5 mb 0.00 in0.0 mm 0.00 in0.0 mm 0.00 in0.0 mm
05:10 AM 20.8°F-6.2°C 19.2°F-7.1°C 93% 3.0 mph E4.8 kmh E 9.0 mph14.5 kmh 29.75 in1007.5 mb 0.00 in0.0 mm 0.00 in0.0 mm 0.00 in0.0 mm
05:15 AM 20.8°F-6.2°C 19.2°F-7.1°C 93% 4.0 mph E6.4 kmh E 9.0 mph14.5 kmh 29.75 in1007.5 mb 0.00 in0.0 mm 0.00 in0.0 mm 0.00 in0.0 mm
05:20 AM 21.0°F-6.1°C 19.2°F-7.1°C 93% 4.0 mph E6.4 kmh E 11.0 mph17.7 kmh 29.75 in1007.5 mb 0.00 in0.0 mm 0.00 in0.0 mm 0.00 in0.0 mm
05:25 AM 21.0°F-6.1°C 19.2°F-7.1°C 93% 4.0 mph E6.4 kmh E 11.0 mph17.7 kmh 29.75 in1007.5 mb 0.00 in0.0 mm 0.00 in0.0 mm 0.00 in0.0 mm
05:30 AM 21.0°F-6.1°C 19.2°F-7.1°C 93% 4.0 mph E6.4 kmh E 10.0 mph16.1 kmh 29.74 in1007.1 mb 0.00 in0.0 mm 0.00 in0.0 mm 0.00 in0.0 mm
05:35 AM 21.0°F-6.1°C 19.4°F-7.0°C 93% 3.0 mph E4.8 kmh E 8.0 mph12.9 kmh 29.74 in1007.1 mb 0.00 in0.0 mm 0.00 in0.0 mm 0.00 in0.0 mm
05:40 AM 21.0°F-6.1°C 19.4°F-7.0°C 93% 2.0 mph E3.2 kmh E 7.0 mph11.3 kmh 29.75 in1007.5 mb 0.00 in0.0 mm 0.00 in0.0 mm 0.00 in0.0 mm
05:45 AM 21.2°F-6.0°C 19.8°F-6.8°C 94% 1.0 mph E1.6 kmh E 7.0 mph11.3 kmh 29.75 in1007.5 mb 0.00 in0.0 mm 0.00 in0.0 mm 0.00 in0.0 mm
05:50 AM 21.2°F-6.0°C 19.8°F-6.8°C 94% 2.0 mph E3.2 kmh E 8.0 mph12.9 kmh 29.75 in1007.5 mb 0.00 in0.0 mm 0.00 in0.0 mm 0.00 in0.0 mm
05:55 AM 21.2°F-6.0°C 19.8°F-6.8°C 94% 3.0 mph E4.8 kmh E 8.0 mph12.9 kmh 29.74 in1007.1 mb 0.00 in0.0 mm 0.00 in0.0 mm 0.00 in0.0 mm
06:00 AM 21.2°F-6.0°C 19.8°F-6.8°C 94% 2.0 mph E3.2 kmh E 7.0 mph11.3 kmh 29.74 in1007.1 mb 0.00 in0.0 mm 0.00 in0.0 mm 0.00 in0.0 mm
06:05 AM 21.2°F-6.0°C 19.8°F-6.8°C 94% 2.0 mph E3.2 kmh E 9.0 mph14.5 kmh 29.74 in1007.1 mb 0.00 in0.0 mm 0.00 in0.0 mm 0.00 in0.0 mm
06:10 AM 21.2°F-6.0°C 19.8°F-6.8°C 94% 2.0 mph E3.2 kmh E 9.0 mph14.5 kmh 29.74 in1007.1 mb 0.00 in0.0 mm 0.00 in0.0 mm 0.00 in0.0 mm
06:15 AM 21.0°F-6.1°C 19.6°F-6.9°C 94% 2.0 mph E3.2 kmh E 7.0 mph11.3 kmh 29.74 in1007.1 mb 0.00 in0.0 mm 0.00 in0.0 mm 0.00 in0.0 mm
06:20 AM 21.0°F-6.1°C 19.6°F-6.9°C 94% 2.0 mph E3.2 kmh E 8.0 mph12.9 kmh 29.74 in1007.1 mb 0.00 in0.0 mm 0.00 in0.0 mm 0.00 in0.0 mm
06:25 AM 21.0°F-6.1°C 19.6°F-6.9°C 94% 2.0 mph E3.2 kmh E 8.0 mph12.9 kmh 29.74 in1007.1 mb 0.00 in0.0 mm 0.00 in0.0 mm 0.00 in0.0 mm
06:30 AM 21.0°F-6.1°C 19.4°F-7.0°C 93% 2.0 mph E3.2 kmh E 7.0 mph11.3 kmh 29.74 in1007.1 mb 0.00 in0.0 mm 0.00 in0.0 mm 0.00 in0.0 mm
06:35 AM 21.0°F-6.1°C 19.4°F-7.0°C 93% 3.0 mph E4.8 kmh E 9.0 mph14.5 kmh 29.74 in1007.1 mb 0.00 in0.0 mm 0.00 in0.0 mm 0.00 in0.0 mm
06:40 AM 21.0°F-6.1°C 19.4°F-7.0°C 93% 3.0 mph E4.8 kmh E 9.0 mph14.5 kmh 29.74 in1007.1 mb 0.00 in0.0 mm 0.00 in0.0 mm 0.00 in0.0 mm
06:45 AM 21.0°F-6.1°C 19.2°F-7.1°C 93% 3.0 mph E4.8 kmh E 9.0 mph14.5 kmh 29.74 in1007.1 mb 0.00 in0.0 mm 0.00 in0.0 mm 0.00 in0.0 mm
06:50 AM 21.0°F-6.1°C 19.2°F-7.1°C 93% 3.0 mph E4.8 kmh E 8.0 mph12.9 kmh 29.74 in1007.1 mb 0.00 in0.0 mm 0.00 in0.0 mm 0.00 in0.0 mm
06:55 AM 21.0°F-6.1°C 19.2°F-7.1°C 93% 3.0 mph E4.8 kmh E 8.0 mph12.9 kmh 29.74 in1007.1 mb 0.00 in0.0 mm 0.00 in0.0 mm 0.00 in0.0 mm
07:00 AM 21.0°F-6.1°C 19.2°F-7.1°C 93% 3.0 mph E4.8 kmh E 7.0 mph11.3 kmh 29.74 in1007.1 mb 0.00 in0.0 mm 0.00 in0.0 mm 0.00 in0.0 mm
07:05 AM 21.0°F-6.1°C 19.4°F-7.0°C 93% 3.0 mph E4.8 kmh E 7.0 mph11.3 kmh 29.74 in1007.1 mb 0.00 in0.0 mm 0.00 in0.0 mm 0.00 in0.0 mm
07:10 AM 21.0°F-6.1°C 19.4°F-7.0°C 93% 3.0 mph E4.8 kmh E 8.0 mph12.9 kmh 29.74 in1007.1 mb 0.00 in0.0 mm 0.00 in0.0 mm 0.00 in0.0 mm
07:15 AM 21.0°F-6.1°C 19.4°F-7.0°C 93% 3.0 mph E4.8 kmh E 8.0 mph12.9 kmh 29.74 in1007.1 mb 0.00 in0.0 mm 0.00 in0.0 mm 0.00 in0.0 mm
07:20 AM 21.2°F-6.0°C 19.6°F-6.9°C 93% 3.0 mph E4.8 kmh E 13.0 mph20.9 kmh 29.74 in1007.1 mb 0.00 in0.0 mm 0.00 in0.0 mm 0.00 in0.0 mm
07:25 AM 21.4°F-5.9°C 19.6°F-6.9°C 93% 3.0 mph E4.8 kmh E 13.0 mph20.9 kmh 29.74 in1007.1 mb 0.00 in0.0 mm 0.00 in0.0 mm 0.00 in0.0 mm
07:30 AM 21.4°F-5.9°C 19.6°F-6.9°C 93% 3.0 mph E4.8 kmh E 9.0 mph14.5 kmh 29.74 in1007.1 mb 0.00 in0.0 mm 0.00 in0.0 mm 0.00 in0.0 mm
07:35 AM 21.4°F-5.9°C 19.8°F-6.8°C 93% 3.0 mph E4.8 kmh E 9.0 mph14.5 kmh 29.74 in1007.1 mb 0.00 in0.0 mm 0.00 in0.0 mm 0.00 in0.0 mm
07:40 AM 21.6°F-5.8°C 19.8°F-6.8°C 93% 3.0 mph E4.8 kmh E 13.0 mph20.9 kmh 29.74 in1007.1 mb 0.00 in0.0 mm 0.00 in0.0 mm 0.00 in0.0 mm
07:45 AM 21.6°F-5.8°C 19.9°F-6.7°C 93% 3.0 mph E4.8 kmh E 13.0 mph20.9 kmh 29.74 in1007.1 mb 0.00 in0.0 mm 0.00 in0.0 mm 0.00 in0.0 mm
07:50 AM 21.6°F-5.8°C 19.9°F-6.7°C 93% 3.0 mph E4.8 kmh E 7.0 mph11.3 kmh 29.74 in1007.1 mb 0.00 in0.0 mm 0.00 in0.0 mm 0.00 in0.0 mm
07:55 AM 21.7°F-5.7°C 19.9°F-6.7°C 93% 2.0 mph E3.2 kmh E 7.0 mph11.3 kmh 29.74 in1007.1 mb 0.00 in0.0 mm 0.00 in0.0 mm 0.00 in0.0 mm
08:00 AM 21.7°F-5.7°C 20.1°F-6.6°C 93% 2.0 mph E3.2 kmh E 7.0 mph11.3 kmh 29.73 in1006.8 mb 0.00 in0.0 mm 0.00 in0.0 mm 0.00 in0.0 mm
08:05 AM 21.9°F-5.6°C 20.1°F-6.6°C 93% 2.0 mph E3.2 kmh E 8.0 mph12.9 kmh 29.73 in1006.8 mb 0.00 in0.0 mm 0.00 in0.0 mm 0.00 in0.0 mm
08:10 AM 22.1°F-5.5°C 20.3°F-6.5°C 93% 2.0 mph E3.2 kmh E 9.0 mph14.5 kmh 29.73 in1006.8 mb 0.00 in0.0 mm 0.00 in0.0 mm 0.00 in0.0 mm
08:15 AM 22.1°F-5.5°C 20.3°F-6.5°C 93% 2.0 mph E3.2 kmh E 9.0 mph14.5 kmh 29.73 in1006.8 mb 0.00 in0.0 mm 0.00 in0.0 mm 0.00 in0.0 mm
08:20 AM 22.3°F-5.4°C 20.7°F-6.3°C 93% 1.0 mph E1.6 kmh E 4.0 mph6.4 kmh 29.73 in1006.8 mb 0.00 in0.0 mm 0.00 in0.0 mm 0.00 in0.0 mm
08:25 AM 22.5°F-5.3°C 20.7°F-6.3°C 93% 2.0 mph E3.2 kmh E 8.0 mph12.9 kmh 29.73 in1006.8 mb 0.00 in0.0 mm 0.00 in0.0 mm 0.00 in0.0 mm
08:30 AM 22.5°F-5.3°C 20.8°F-6.2°C 93% 2.0 mph E3.2 kmh E 9.0 mph14.5 kmh 29.73 in1006.8 mb 0.00 in0.0 mm 0.00 in0.0 mm 0.00 in0.0 mm
08:35 AM 22.6°F-5.2°C 20.8°F-6.2°C 93% 2.0 mph E3.2 kmh E 9.0 mph14.5 kmh 29.73 in1006.8 mb 0.00 in0.0 mm 0.00 in0.0 mm 0.00 in0.0 mm
08:40 AM 22.6°F-5.2°C 21.0°F-6.1°C 93% 2.0 mph E3.2 kmh E 6.0 mph9.7 kmh 29.73 in1006.8 mb 0.00 in0.0 mm 0.00 in0.0 mm 0.00 in0.0 mm
08:45 AM 22.6°F-5.2°C 21.0°F-6.1°C 93% 2.0 mph E3.2 kmh E 6.0 mph9.7 kmh 29.73 in1006.8 mb 0.00 in0.0 mm 0.00 in0.0 mm 0.00 in0.0 mm
08:50 AM 22.8°F-5.1°C 21.0°F-6.1°C 93% 2.0 mph E3.2 kmh E 7.0 mph11.3 kmh 29.73 in1006.8 mb 0.00 in0.0 mm 0.00 in0.0 mm 0.00 in0.0 mm
08:55 AM 22.8°F-5.1°C 21.2°F-6.0°C 93% 4.0 mph E6.4 kmh E 9.0 mph14.5 kmh 29.73 in1006.8 mb 0.00 in0.0 mm 0.00 in0.0 mm 0.00 in0.0 mm
09:00 AM 22.8°F-5.1°C 21.0°F-6.1°C 93% 4.0 mph E6.4 kmh E 9.0 mph14.5 kmh 29.73 in1006.8 mb 0.00 in0.0 mm 0.00 in0.0 mm 0.00 in0.0 mm
09:05 AM 22.8°F-5.1°C 21.0°F-6.1°C 93% 4.0 mph E6.4 kmh E 12.0 mph19.3 kmh 29.73 in1006.8 mb 0.00 in0.0 mm 0.00 in0.0 mm 0.00 in0.0 mm
09:10 AM 22.8°F-5.1°C 21.2°F-6.0°C 93% 3.0 mph E4.8 kmh E 12.0 mph19.3 kmh 29.73 in1006.8 mb 0.00 in0.0 mm 0.00 in0.0 mm 0.00 in0.0 mm
09:15 AM 22.8°F-5.1°C 21.2°F-6.0°C 93% 4.0 mph E6.4 kmh E 13.0 mph20.9 kmh 29.73 in1006.8 mb 0.00 in0.0 mm 0.00 in0.0 mm 0.00 in0.0 mm
09:20 AM 23.0°F-5.0°C 21.0°F-6.1°C 92% 5.0 mph E8.0 kmh E 13.0 mph20.9 kmh 29.73 in1006.8 mb 0.00 in0.0 mm 0.00 in0.0 mm 0.00 in0.0 mm
09:25 AM 23.0°F-5.0°C 21.0°F-6.1°C 92% 7.0 mph ENE11.3 kmh ENE 18.0 mph29.0 kmh 29.73 in1006.8 mb 0.00 in0.0 mm 0.00 in0.0 mm 0.00 in0.0 mm
09:30 AM 23.2°F-4.9°C 21.2°F-6.0°C 92% 6.0 mph ENE9.7 kmh ENE 18.0 mph29.0 kmh 29.73 in1006.8 mb 0.00 in0.0 mm 0.00 in0.0 mm 0.00 in0.0 mm
09:35 AM 23.2°F-4.9°C 21.2°F-6.0°C 92% 4.0 mph E6.4 kmh E 13.0 mph20.9 kmh 29.73 in1006.8 mb 0.00 in0.0 mm 0.00 in0.0 mm 0.00 in0.0 mm
09:40 AM 23.4°F-4.8°C 21.4°F-5.9°C 92% 3.0 mph ENE4.8 kmh ENE 11.0 mph17.7 kmh 29.73 in1006.8 mb 0.00 in0.0 mm 0.00 in0.0 mm 0.00 in0.0 mm
09:45 AM 23.4°F-4.8°C 21.4°F-5.9°C 92% 2.0 mph E3.2 kmh E 12.0 mph19.3 kmh 29.73 in1006.8 mb 0.00 in0.0 mm 0.00 in0.0 mm 0.00 in0.0 mm
09:50 AM 23.5°F-4.7°C 21.4°F-5.9°C 91% 4.0 mph E6.4 kmh E 12.0 mph19.3 kmh 29.73 in1006.8 mb 0.00 in0.0 mm 0.00 in0.0 mm 0.00 in0.0 mm
09:55 AM 23.7°F-4.6°C 21.6°F-5.8°C 91% 5.0 mph E8.0 kmh E 11.0 mph17.7 kmh 29.73 in1006.8 mb 0.00 in0.0 mm 0.00 in0.0 mm 0.00 in0.0 mm
10:00 AM 23.9°F-4.5°C 21.4°F-5.9°C 90% 5.0 mph E8.0 kmh E 14.0 mph22.5 kmh 29.72 in1006.4 mb 0.00 in0.0 mm 0.00 in0.0 mm 0.00 in0.0 mm
10:05 AM 24.1°F-4.4°C 21.6°F-5.8°C 90% 5.0 mph E8.0 kmh E 18.0 mph29.0 kmh 29.72 in1006.4 mb 0.00 in0.0 mm 0.00 in0.0 mm 0.00 in0.0 mm
10:10 AM 24.3°F-4.3°C 21.7°F-5.7°C 90% 4.0 mph E6.4 kmh E 18.0 mph29.0 kmh 29.72 in1006.4 mb 0.00 in0.0 mm 0.00 in0.0 mm 0.00 in0.0 mm
10:15 AM 24.3°F-4.3°C 21.7°F-5.7°C 90% 4.0 mph ENE6.4 kmh ENE 10.0 mph16.1 kmh 29.72 in1006.4 mb 0.00 in0.0 mm 0.00 in0.0 mm 0.00 in0.0 mm
10:20 AM 24.4°F-4.2°C 21.9°F-5.6°C 90% 5.0 mph ENE8.0 kmh ENE 11.0 mph17.7 kmh 29.72 in1006.4 mb 0.00 in0.0 mm 0.00 in0.0 mm 0.00 in0.0 mm
10:25 AM 24.4°F-4.2°C 21.9°F-5.6°C 90% 5.0 mph ENE8.0 kmh ENE 11.0 mph17.7 kmh 29.72 in1006.4 mb 0.00 in0.0 mm 0.00 in0.0 mm 0.00 in0.0 mm
10:30 AM 24.4°F-4.2°C 21.9°F-5.6°C 90% 4.0 mph E6.4 kmh E 14.0 mph22.5 kmh 29.72 in1006.4 mb 0.00 in0.0 mm 0.00 in0.0 mm 0.00 in0.0 mm
10:35 AM 24.6°F-4.1°C 21.7°F-5.7°C 89% 5.0 mph E8.0 kmh E 14.0 mph22.5 kmh 29.72 in1006.4 mb 0.00 in0.0 mm 0.00 in0.0 mm 0.00 in0.0 mm
10:40 AM 24.6°F-4.1°C 21.7°F-5.7°C 89% 7.0 mph ENE11.3 kmh ENE 17.0 mph27.4 kmh 29.72 in1006.4 mb 0.00 in0.0 mm 0.00 in0.0 mm 0.00 in0.0 mm
10:45 AM 24.6°F-4.1°C 21.7°F-5.7°C 88% 8.0 mph ENE12.9 kmh ENE 17.0 mph27.4 kmh 29.72 in1006.4 mb 0.00 in0.0 mm 0.00 in0.0 mm 0.00 in0.0 mm
10:50 AM 24.6°F-4.1°C 21.6°F-5.8°C 88% 8.0 mph E12.9 kmh E 17.0 mph27.4 kmh 29.71 in1006.1 mb 0.00 in0.0 mm 0.00 in0.0 mm 0.00 in0.0 mm
10:55 AM 24.6°F-4.1°C 21.7°F-5.7°C 88% 7.0 mph E11.3 kmh E 16.0 mph25.7 kmh 29.71 in1006.1 mb 0.00 in0.0 mm 0.00 in0.0 mm 0.00 in0.0 mm
11:00 AM 24.6°F-4.1°C 21.7°F-5.7°C 88% 5.0 mph E8.0 kmh E 15.0 mph24.1 kmh 29.71 in1006.1 mb 0.00 in0.0 mm 0.00 in0.0 mm 0.00 in0.0 mm
11:05 AM 24.6°F-4.1°C 21.7°F-5.7°C 88% 5.0 mph E8.0 kmh E 12.0 mph19.3 kmh 29.71 in1006.1 mb 0.00 in0.0 mm 0.00 in0.0 mm 0.00 in0.0 mm
11:10 AM 24.6°F-4.1°C 21.6°F-5.8°C 88% 5.0 mph E8.0 kmh E 12.0 mph19.3 kmh 29.71 in1006.1 mb 0.00 in0.0 mm 0.00 in0.0 mm 0.00 in0.0 mm
11:15 AM 24.6°F-4.1°C 21.6°F-5.8°C 88% 5.0 mph E8.0 kmh E 12.0 mph19.3 kmh 29.71 in1006.1 mb 0.00 in0.0 mm 0.00 in0.0 mm 0.00 in0.0 mm
11:20 AM 24.6°F-4.1°C 21.6°F-5.8°C 88% 4.0 mph E6.4 kmh E 12.0 mph19.3 kmh 29.71 in1006.1 mb 0.00 in0.0 mm 0.00 in0.0 mm 0.00 in0.0 mm
11:25 AM 24.6°F-4.1°C 21.7°F-5.7°C 89% 4.0 mph E6.4 kmh E 10.0 mph16.1 kmh 29.71 in1006.1 mb 0.00 in0.0 mm 0.00 in0.0 mm 0.00 in0.0 mm
11:30 AM 24.4°F-4.2°C 21.7°F-5.7°C 89% 5.0 mph ENE8.0 kmh ENE 14.0 mph22.5 kmh 29.71 in1006.1 mb 0.00 in0.0 mm 0.00 in0.0 mm 0.00 in0.0 mm
11:35 AM 24.3°F-4.3°C 21.6°F-5.8°C 89% 6.0 mph ENE9.7 kmh ENE 16.0 mph25.7 kmh 29.71 in1006.1 mb 0.00 in0.0 mm 0.00 in0.0 mm 0.00 in0.0 mm
11:40 AM 24.1°F-4.4°C 21.0°F-6.1°C 88% 8.0 mph ENE12.9 kmh ENE 17.0 mph27.4 kmh 29.71 in1006.1 mb 0.00 in0.0 mm 0.00 in0.0 mm 0.00 in0.0 mm
11:45 AM 23.7°F-4.6°C 20.8°F-6.2°C 88% 8.0 mph ENE12.9 kmh ENE 17.0 mph27.4 kmh 29.71 in1006.1 mb 0.00 in0.0 mm 0.00 in0.0 mm 0.00 in0.0 mm
11:50 AM 23.7°F-4.6°C 21.0°F-6.1°C 89% 7.0 mph ENE11.3 kmh ENE 14.0 mph22.5 kmh 29.71 in1006.1 mb 0.00 in0.0 mm 0.00 in0.0 mm 0.00 in0.0 mm
11:55 AM 23.7°F-4.6°C 21.0°F-6.1°C 89% 6.0 mph ENE9.7 kmh ENE 14.0 mph22.5 kmh 29.71 in1006.1 mb 0.00 in0.0 mm 0.00 in0.0 mm 0.00 in0.0 mm
12:00 PM 23.7°F-4.6°C 21.0°F-6.1°C 89% 6.0 mph ENE9.7 kmh ENE 13.0 mph20.9 kmh 29.71 in1006.1 mb 0.00 in0.0 mm 0.00 in0.0 mm 0.00 in0.0 mm
12:05 PM 24.1°F-4.4°C 21.2°F-6.0°C 89% 5.0 mph ENE8.0 kmh ENE 11.0 mph17.7 kmh 29.71 in1006.1 mb 0.00 in0.0 mm 0.00 in0.0 mm 0.00 in0.0 mm
12:10 PM 24.1°F-4.4°C 21.4°F-5.9°C 89% 3.0 mph ENE4.8 kmh ENE 9.0 mph14.5 kmh 29.70 in1005.8 mb 0.00 in0.0 mm 0.00 in0.0 mm 0.00 in0.0 mm
12:15 PM 24.1°F-4.4°C 21.2°F-6.0°C 89% 4.0 mph ENE6.4 kmh ENE 13.0 mph20.9 kmh 29.70 in1005.8 mb 0.00 in0.0 mm 0.00 in0.0 mm 0.00 in0.0 mm
12:20 PM 23.9°F-4.5°C 20.8°F-6.2°C 88% 6.0 mph ENE9.7 kmh ENE 13.0 mph20.9 kmh 29.70 in1005.8 mb 0.00 in0.0 mm 0.00 in0.0 mm 0.00 in0.0 mm
12:25 PM 24.1°F-4.4°C 21.4°F-5.9°C 89% 6.0 mph ENE9.7 kmh ENE 12.0 mph19.3 kmh 29.70 in1005.8 mb 0.00 in0.0 mm 0.00 in0.0 mm 0.00 in0.0 mm
12:30 PM 24.1°F-4.4°C 21.2°F-6.0°C 89% 5.0 mph ENE8.0 kmh ENE 9.0 mph14.5 kmh 29.70 in1005.8 mb 0.00 in0.0 mm 0.00 in0.0 mm 0.00 in0.0 mm
12:35 PM 24.1°F-4.4°C 21.2°F-6.0°C 89% 4.0 mph ENE6.4 kmh ENE 10.0 mph16.1 kmh 29.70 in1005.8 mb 0.00 in0.0 mm 0.00 in0.0 mm 0.00 in0.0 mm
12:40 PM 24.1°F-4.4°C 21.2°F-6.0°C 89% 5.0 mph ENE8.0 kmh ENE 13.0 mph20.9 kmh 29.70 in1005.8 mb 0.00 in0.0 mm 0.00 in0.0 mm 0.00 in0.0 mm
12:45 PM 24.1°F-4.4°C 21.2°F-6.0°C 89% 4.0 mph ENE6.4 kmh ENE 13.0 mph20.9 kmh 29.69 in1005.4 mb 0.00 in0.0 mm 0.00 in0.0 mm 0.00 in0.0 mm
12:50 PM 24.1°F-4.4°C 21.2°F-6.0°C 89% 4.0 mph E6.4 kmh E 11.0 mph17.7 kmh 29.69 in1005.4 mb 0.00 in0.0 mm 0.00 in0.0 mm 0.00 in0.0 mm
12:55 PM 24.1°F-4.4°C 21.4°F-5.9°C 89% 5.0 mph ENE8.0 kmh ENE 11.0 mph17.7 kmh 29.69 in1005.4 mb 0.00 in0.0 mm 0.00 in0.0 mm 0.00 in0.0 mm
01:00 PM 24.1°F-4.4°C 21.2°F-6.0°C 89% 5.0 mph ENE8.0 kmh ENE 10.0 mph16.1 kmh 29.69 in1005.4 mb 0.00 in0.0 mm 0.00 in0.0 mm 0.00 in0.0 mm
01:05 PM 24.1°F-4.4°C 21.2°F-6.0°C 89% 4.0 mph ENE6.4 kmh ENE 10.0 mph16.1 kmh 29.69 in1005.4 mb 0.00 in0.0 mm 0.00 in0.0 mm 0.00 in0.0 mm
01:10 PM 24.1°F-4.4°C 21.2°F-6.0°C 89% 4.0 mph ENE6.4 kmh ENE 9.0 mph14.5 kmh 29.69 in1005.4 mb 0.00 in0.0 mm 0.00 in0.0 mm 0.00 in0.0 mm
01:15 PM 23.9°F-4.5°C 21.2°F-6.0°C 89% 4.0 mph ENE6.4 kmh ENE 10.0 mph16.1 kmh 29.69 in1005.4 mb 0.00 in0.0 mm 0.00 in0.0 mm 0.00 in0.0 mm
01:20 PM 24.1°F-4.4°C 21.2°F-6.0°C 89% 5.0 mph ENE8.0 kmh ENE 13.0 mph20.9 kmh 29.69 in1005.4 mb 0.00 in0.0 mm 0.00 in0.0 mm 0.00 in0.0 mm
01:25 PM 24.1°F-4.4°C 21.2°F-6.0°C 89% 5.0 mph ENE8.0 kmh ENE 13.0 mph20.9 kmh 29.69 in1005.4 mb 0.00 in0.0 mm 0.00 in0.0 mm 0.00 in0.0 mm
01:30 PM 24.1°F-4.4°C 21.2°F-6.0°C 89% 5.0 mph ENE8.0 kmh ENE 13.0 mph20.9 kmh 29.69 in1005.4 mb 0.00 in0.0 mm 0.00 in0.0 mm 0.00 in0.0 mm
01:35 PM 24.1°F-4.4°C 21.2°F-6.0°C 89% 6.0 mph ENE9.7 kmh ENE 13.0 mph20.9 kmh 29.69 in1005.4 mb 0.00 in0.0 mm 0.00 in0.0 mm 0.00 in0.0 mm
01:40 PM 24.1°F-4.4°C 21.4°F-5.9°C 89% 5.0 mph ENE8.0 kmh ENE 13.0 mph20.9 kmh 29.69 in1005.4 mb 0.00 in0.0 mm 0.00 in0.0 mm 0.00 in0.0 mm
01:45 PM 24.1°F-4.4°C 21.2°F-6.0°C 89% 6.0 mph ENE9.7 kmh ENE 16.0 mph25.7 kmh 29.69 in1005.4 mb 0.00 in0.0 mm 0.00 in0.0 mm 0.00 in0.0 mm
01:50 PM 23.9°F-4.5°C 21.2°F-6.0°C 89% 6.0 mph ENE9.7 kmh ENE 16.0 mph25.7 kmh 29.69 in1005.4 mb 0.00 in0.0 mm 0.00 in0.0 mm 0.00 in0.0 mm
01:55 PM 23.9°F-4.5°C 21.2°F-6.0°C 89% 5.0 mph ENE8.0 kmh ENE 12.0 mph19.3 kmh 29.68 in1005.1 mb 0.00 in0.0 mm 0.00 in0.0 mm 0.00 in0.0 mm
02:00 PM 23.7°F-4.6°C 21.0°F-6.1°C 89% 5.0 mph ENE8.0 kmh ENE 12.0 mph19.3 kmh 29.68 in1005.1 mb 0.00 in0.0 mm 0.00 in0.0 mm 0.00 in0.0 mm
02:05 PM 23.5°F-4.7°C 20.5°F-6.4°C 88% 6.0 mph ENE9.7 kmh ENE 15.0 mph24.1 kmh 29.68 in1005.1 mb 0.00 in0.0 mm 0.00 in0.0 mm 0.00 in0.0 mm
02:10 PM 23.5°F-4.7°C 20.8°F-6.2°C 89% 7.0 mph ENE11.3 kmh ENE 15.0 mph24.1 kmh 29.68 in1005.1 mb 0.00 in0.0 mm 0.00 in0.0 mm 0.00 in0.0 mm
02:15 PM 23.5°F-4.7°C 20.7°F-6.3°C 89% 6.0 mph ENE9.7 kmh ENE 14.0 mph22.5 kmh 29.69 in1005.4 mb 0.00 in0.0 mm 0.00 in0.0 mm 0.00 in0.0 mm
02:20 PM 23.5°F-4.7°C 20.8°F-6.2°C 89% 5.0 mph ENE8.0 kmh ENE 13.0 mph20.9 kmh 29.69 in1005.4 mb 0.00 in0.0 mm 0.00 in0.0 mm 0.00 in0.0 mm
02:25 PM 23.5°F-4.7°C 20.7°F-6.3°C 89% 4.0 mph ENE6.4 kmh ENE 9.0 mph14.5 kmh 29.69 in1005.4 mb 0.00 in0.0 mm 0.00 in0.0 mm 0.00 in0.0 mm
02:30 PM 23.5°F-4.7°C 20.8°F-6.2°C 89% 2.0 mph E3.2 kmh E 8.0 mph12.9 kmh 29.69 in1005.4 mb 0.00 in0.0 mm 0.00 in0.0 mm 0.00 in0.0 mm
02:35 PM 23.5°F-4.7°C 20.8°F-6.2°C 89% 2.0 mph E3.2 kmh E 6.0 mph9.7 kmh 29.69 in1005.4 mb 0.00 in0.0 mm 0.00 in0.0 mm 0.00 in0.0 mm
02:40 PM 23.7°F-4.6°C 21.0°F-6.1°C 89% 3.0 mph ENE4.8 kmh ENE 8.0 mph12.9 kmh 29.69 in1005.4 mb 0.00 in0.0 mm 0.00 in0.0 mm 0.00 in0.0 mm
02:45 PM 23.7°F-4.6°C 21.0°F-6.1°C 89% 3.0 mph ENE4.8 kmh ENE 9.0 mph14.5 kmh 29.69 in1005.4 mb 0.00 in0.0 mm 0.00 in0.0 mm 0.00 in0.0 mm
02:50 PM 23.7°F-4.6°C 20.8°F-6.2°C 88% 3.0 mph E4.8 kmh E 12.0 mph19.3 kmh 29.69 in1005.4 mb 0.00 in0.0 mm 0.00 in0.0 mm 0.00 in0.0 mm
02:55 PM 23.7°F-4.6°C 20.7°F-6.3°C 88% 3.0 mph E4.8 kmh E 12.0 mph19.3 kmh 29.69 in1005.4 mb 0.00 in0.0 mm 0.00 in0.0 mm 0.00 in0.0 mm
03:00 PM 23.5°F-4.7°C 20.5°F-6.4°C 88% 3.0 mph E4.8 kmh E 10.0 mph16.1 kmh 29.69 in1005.4 mb 0.00 in0.0 mm 0.00 in0.0 mm 0.00 in0.0 mm
03:05 PM 23.5°F-4.7°C 20.5°F-6.4°C 88% 3.0 mph E4.8 kmh E 8.0 mph12.9 kmh 29.69 in1005.4 mb 0.00 in0.0 mm 0.00 in0.0 mm 0.00 in0.0 mm
03:10 PM 23.5°F-4.7°C 20.5°F-6.4°C 88% 2.0 mph ENE3.2 kmh ENE 6.0 mph9.7 kmh 29.69 in1005.4 mb 0.00 in0.0 mm 0.00 in0.0 mm 0.00 in0.0 mm
03:15 PM 23.5°F-4.7°C 20.5°F-6.4°C 88% 2.0 mph E3.2 kmh E 8.0 mph12.9 kmh 29.69 in1005.4 mb 0.00 in0.0 mm 0.00 in0.0 mm 0.00 in0.0 mm
03:20 PM 23.5°F-4.7°C 20.5°F-6.4°C 88% 3.0 mph E4.8 kmh E 8.0 mph12.9 kmh 29.69 in1005.4 mb 0.00 in0.0 mm 0.00 in0.0 mm 0.00 in0.0 mm
03:25 PM 23.5°F-4.7°C 20.5°F-6.4°C 88% 3.0 mph E4.8 kmh E 8.0 mph12.9 kmh 29.69 in1005.4 mb 0.00 in0.0 mm 0.00 in0.0 mm 0.00 in0.0 mm
03:30 PM 23.7°F-4.6°C 21.0°F-6.1°C 89% 3.0 mph ENE4.8 kmh ENE 16.0 mph25.7 kmh 29.70 in1005.8 mb 0.00 in0.0 mm 0.00 in0.0 mm 0.00 in0.0 mm
03:35 PM 23.5°F-4.7°C 20.5°F-6.4°C 88% 7.0 mph ENE11.3 kmh ENE 17.0 mph27.4 kmh 29.70 in1005.8 mb 0.00 in0.0 mm 0.00 in0.0 mm 0.00 in0.0 mm
03:40 PM 23.5°F-4.7°C 20.5°F-6.4°C 88% 8.0 mph ENE12.9 kmh ENE 17.0 mph27.4 kmh 29.70 in1005.8 mb 0.00 in0.0 mm 0.00 in0.0 mm 0.00 in0.0 mm
03:45 PM 23.4°F-4.8°C 20.3°F-6.5°C 88% 8.0 mph ENE12.9 kmh ENE 16.0 mph25.7 kmh 29.70 in1005.8 mb 0.00 in0.0 mm 0.00 in0.0 mm 0.00 in0.0 mm
03:50 PM 23.4°F-4.8°C 20.3°F-6.5°C 88% 8.0 mph ENE12.9 kmh ENE 16.0 mph25.7 kmh 29.70 in1005.8 mb 0.00 in0.0 mm 0.00 in0.0 mm 0.00 in0.0 mm
03:55 PM 23.4°F-4.8°C 20.3°F-6.5°C 88% 7.0 mph ENE11.3 kmh ENE 16.0 mph25.7 kmh 29.70 in1005.8 mb 0.00 in0.0 mm 0.00 in0.0 mm 0.00 in0.0 mm
04:00 PM 23.2°F-4.9°C 20.1°F-6.6°C 88% 7.0 mph ENE11.3 kmh ENE 15.0 mph24.1 kmh 29.70 in1005.8 mb 0.00 in0.0 mm 0.00 in0.0 mm 0.00 in0.0 mm
04:05 PM 23.2°F-4.9°C 20.1°F-6.6°C 88% 7.0 mph ENE11.3 kmh ENE 17.0 mph27.4 kmh 29.70 in1005.8 mb 0.00 in0.0 mm 0.00 in0.0 mm 0.00 in0.0 mm
04:10 PM 23.0°F-5.0°C 19.9°F-6.7°C 88% 8.0 mph ENE12.9 kmh ENE 17.0 mph27.4 kmh 29.71 in1006.1 mb 0.00 in0.0 mm 0.00 in0.0 mm 0.00 in0.0 mm
04:15 PM 22.8°F-5.1°C 19.8°F-6.8°C 88% 8.0 mph E12.9 kmh E 15.0 mph24.1 kmh 29.71 in1006.1 mb 0.00 in0.0 mm 0.00 in0.0 mm 0.00 in0.0 mm
04:20 PM 22.6°F-5.2°C 19.6°F-6.9°C 88% 6.0 mph E9.7 kmh E 13.0 mph20.9 kmh 29.71 in1006.1 mb 0.00 in0.0 mm 0.00 in0.0 mm 0.00 in0.0 mm
04:25 PM 22.5°F-5.3°C 19.4°F-7.0°C 88% 5.0 mph E8.0 kmh E 11.0 mph17.7 kmh 29.71 in1006.1 mb 0.00 in0.0 mm 0.00 in0.0 mm 0.00 in0.0 mm
04:30 PM 22.5°F-5.3°C 19.4°F-7.0°C 88% 4.0 mph E6.4 kmh E 12.0 mph19.3 kmh 29.71 in1006.1 mb 0.00 in0.0 mm 0.00 in0.0 mm 0.00 in0.0 mm
04:35 PM 22.5°F-5.3°C 19.4°F-7.0°C 88% 4.0 mph ENE6.4 kmh ENE 12.0 mph19.3 kmh 29.71 in1006.1 mb 0.00 in0.0 mm 0.00 in0.0 mm 0.00 in0.0 mm
04:40 PM 22.5°F-5.3°C 19.4°F-7.0°C 88% 4.0 mph ENE6.4 kmh ENE 11.0 mph17.7 kmh 29.71 in1006.1 mb 0.00 in0.0 mm 0.00 in0.0 mm 0.00 in0.0 mm
04:45 PM 22.5°F-5.3°C 19.4°F-7.0°C 88% 3.0 mph E4.8 kmh E 8.0 mph12.9 kmh 29.71 in1006.1 mb 0.00 in0.0 mm 0.00 in0.0 mm 0.00 in0.0 mm
04:50 PM 22.5°F-5.3°C 19.4°F-7.0°C 88% 3.0 mph E4.8 kmh E 9.0 mph14.5 kmh 29.71 in1006.1 mb 0.00 in0.0 mm 0.00 in0.0 mm 0.00 in0.0 mm
04:55 PM 22.5°F-5.3°C 19.4°F-7.0°C 88% 2.0 mph E3.2 kmh E 9.0 mph14.5 kmh 29.71 in1006.1 mb 0.00 in0.0 mm 0.00 in0.0 mm 0.00 in0.0 mm
05:00 PM 22.5°F-5.3°C 19.4°F-7.0°C 88% 2.0 mph E3.2 kmh E 9.0 mph14.5 kmh 29.72 in1006.4 mb 0.00 in0.0 mm 0.00 in0.0 mm 0.00 in0.0 mm
05:05 PM 22.5°F-5.3°C 19.4°F-7.0°C 88% 2.0 mph E3.2 kmh E 11.0 mph17.7 kmh 29.72 in1006.4 mb 0.00 in0.0 mm 0.00 in0.0 mm 0.00 in0.0 mm
05:10 PM 22.5°F-5.3°C 19.4°F-7.0°C 88% 3.0 mph E4.8 kmh E 11.0 mph17.7 kmh 29.72 in1006.4 mb 0.00 in0.0 mm 0.00 in0.0 mm 0.00 in0.0 mm
05:15 PM 22.5°F-5.3°C 19.4°F-7.0°C 88% 4.0 mph E6.4 kmh E 10.0 mph16.1 kmh 29.72 in1006.4 mb 0.00 in0.0 mm 0.00 in0.0 mm 0.00 in0.0 mm
05:20 PM 22.5°F-5.3°C 19.6°F-6.9°C 89% 4.0 mph E6.4 kmh E 10.0 mph16.1 kmh 29.72 in1006.4 mb 0.00 in0.0 mm 0.00 in0.0 mm 0.00 in0.0 mm
05:25 PM 22.5°F-5.3°C 19.6°F-6.9°C 89% 4.0 mph E6.4 kmh E 10.0 mph16.1 kmh 29.72 in1006.4 mb 0.00 in0.0 mm 0.00 in0.0 mm 0.00 in0.0 mm
05:30 PM 22.3°F-5.4°C 19.6°F-6.9°C 89% 3.0 mph E4.8 kmh E 9.0 mph14.5 kmh 29.73 in1006.8 mb 0.00 in0.0 mm 0.00 in0.0 mm 0.00 in0.0 mm
05:35 PM 22.3°F-5.4°C 19.6°F-6.9°C 89% 3.0 mph E4.8 kmh E 10.0 mph16.1 kmh 29.73 in1006.8 mb 0.00 in0.0 mm 0.00 in0.0 mm 0.00 in0.0 mm
05:40 PM 22.3°F-5.4°C 19.4°F-7.0°C 89% 3.0 mph E4.8 kmh E 12.0 mph19.3 kmh 29.73 in1006.8 mb 0.00 in0.0 mm 0.00 in0.0 mm 0.00 in0.0 mm
05:45 PM 22.1°F-5.5°C 19.4°F-7.0°C 89% 4.0 mph E6.4 kmh E 12.0 mph19.3 kmh 29.73 in1006.8 mb 0.00 in0.0 mm 0.00 in0.0 mm 0.00 in0.0 mm
05:50 PM 22.1°F-5.5°C 19.4°F-7.0°C 89% 4.0 mph E6.4 kmh E 11.0 mph17.7 kmh 29.73 in1006.8 mb 0.00 in0.0 mm 0.00 in0.0 mm 0.00 in0.0 mm
05:55 PM 22.1°F-5.5°C 19.4°F-7.0°C 89% 3.0 mph E4.8 kmh E 11.0 mph17.7 kmh 29.73 in1006.8 mb 0.00 in0.0 mm 0.00 in0.0 mm 0.00 in0.0 mm
06:00 PM 22.3°F-5.4°C 19.4°F-7.0°C 89% 2.0 mph E3.2 kmh E 7.0 mph11.3 kmh 29.73 in1006.8 mb 0.00 in0.0 mm 0.00 in0.0 mm 0.00 in0.0 mm
06:05 PM 22.3°F-5.4°C 19.8°F-6.8°C 90% 3.0 mph ENE4.8 kmh ENE 10.0 mph16.1 kmh 29.73 in1006.8 mb 0.00 in0.0 mm 0.00 in0.0 mm 0.00 in0.0 mm
06:10 PM 22.3°F-5.4°C 19.6°F-6.9°C 89% 3.0 mph ENE4.8 kmh ENE 10.0 mph16.1 kmh 29.73 in1006.8 mb 0.00 in0.0 mm 0.00 in0.0 mm 0.00 in0.0 mm
06:15 PM 22.3°F-5.4°C 19.6°F-6.9°C 89% 2.0 mph E3.2 kmh E 7.0 mph11.3 kmh 29.73 in1006.8 mb 0.00 in0.0 mm 0.00 in0.0 mm 0.00 in0.0 mm
06:20 PM 22.1°F-5.5°C 19.4°F-7.0°C 89% 5.0 mph E8.0 kmh E 16.0 mph25.7 kmh 29.73 in1006.8 mb 0.00 in0.0 mm 0.00 in0.0 mm 0.00 in0.0 mm
06:25 PM 22.1°F-5.5°C 19.4°F-7.0°C 89% 7.0 mph E11.3 kmh E 17.0 mph27.4 kmh 29.73 in1006.8 mb 0.00 in0.0 mm 0.00 in0.0 mm 0.00 in0.0 mm
06:30 PM 22.1°F-5.5°C 19.0°F-7.2°C 88% 6.0 mph E9.7 kmh E 17.0 mph27.4 kmh 29.73 in1006.8 mb 0.00 in0.0 mm 0.00 in0.0 mm 0.00 in0.0 mm
06:35 PM 22.1°F-5.5°C 19.0°F-7.2°C 88% 6.0 mph E9.7 kmh E 17.0 mph27.4 kmh 29.73 in1006.8 mb 0.00 in0.0 mm 0.00 in0.0 mm 0.00 in0.0 mm
06:40 PM 22.1°F-5.5°C 19.0°F-7.2°C 88% 6.0 mph E9.7 kmh E 17.0 mph27.4 kmh 29.73 in1006.8 mb 0.00 in0.0 mm 0.00 in0.0 mm 0.00 in0.0 mm
06:45 PM 22.1°F-5.5°C 19.0°F-7.2°C 88% 5.0 mph E8.0 kmh E 13.0 mph20.9 kmh 29.73 in1006.8 mb 0.00 in0.0 mm 0.00 in0.0 mm 0.00 in0.0 mm
06:50 PM 22.1°F-5.5°C 19.0°F-7.2°C 88% 5.0 mph E8.0 kmh E 13.0 mph20.9 kmh 29.73 in1006.8 mb 0.00 in0.0 mm 0.00 in0.0 mm 0.00 in0.0 mm
06:55 PM 22.1°F-5.5°C 19.0°F-7.2°C 88% 4.0 mph E6.4 kmh E 9.0 mph14.5 kmh 29.73 in1006.8 mb 0.00 in0.0 mm 0.00 in0.0 mm 0.00 in0.0 mm
07:00 PM 22.1°F-5.5°C 19.0°F-7.2°C 88% 4.0 mph E6.4 kmh E 9.0 mph14.5 kmh 29.73 in1006.8 mb 0.00 in0.0 mm 0.00 in0.0 mm 0.00 in0.0 mm
07:05 PM 22.3°F-5.4°C 19.2°F-7.1°C 88% 3.0 mph ENE4.8 kmh ENE 9.0 mph14.5 kmh 29.73 in1006.8 mb 0.00 in0.0 mm 0.00 in0.0 mm 0.00 in0.0 mm
07:10 PM 22.3°F-5.4°C 19.2°F-7.1°C 88% 2.0 mph ENE3.2 kmh ENE 9.0 mph14.5 kmh 29.73 in1006.8 mb 0.00 in0.0 mm 0.00 in0.0 mm 0.00 in0.0 mm
07:15 PM 22.3°F-5.4°C 19.2°F-7.1°C 88% 3.0 mph ENE4.8 kmh ENE 9.0 mph14.5 kmh 29.73 in1006.8 mb 0.00 in0.0 mm 0.00 in0.0 mm 0.00 in0.0 mm
07:20 PM 22.5°F-5.3°C 19.4°F-7.0°C 88% 5.0 mph ENE8.0 kmh ENE 12.0 mph19.3 kmh 29.73 in1006.8 mb 0.00 in0.0 mm 0.00 in0.0 mm 0.00 in0.0 mm
07:25 PM 22.5°F-5.3°C 19.0°F-7.2°C 87% 6.0 mph ENE9.7 kmh ENE 13.0 mph20.9 kmh 29.73 in1006.8 mb 0.00 in0.0 mm 0.00 in0.0 mm 0.00 in0.0 mm
07:30 PM 22.5°F-5.3°C 19.2°F-7.1°C 87% 6.0 mph ENE9.7 kmh ENE 13.0 mph20.9 kmh 29.73 in1006.8 mb 0.00 in0.0 mm 0.00 in0.0 mm 0.00 in0.0 mm
07:35 PM 22.5°F-5.3°C 19.2°F-7.1°C 87% 5.0 mph ENE8.0 kmh ENE 12.0 mph19.3 kmh 29.74 in1007.1 mb 0.00 in0.0 mm 0.00 in0.0 mm 0.00 in0.0 mm
07:40 PM 22.5°F-5.3°C 19.2°F-7.1°C 87% 4.0 mph E6.4 kmh E 12.0 mph19.3 kmh 29.74 in1007.1 mb 0.00 in0.0 mm 0.00 in0.0 mm 0.00 in0.0 mm
07:45 PM 22.5°F-5.3°C 18.9°F-7.3°C 86% 3.0 mph E4.8 kmh E 12.0 mph19.3 kmh 29.74 in1007.1 mb 0.00 in0.0 mm 0.00 in0.0 mm 0.00 in0.0 mm
07:50 PM 22.5°F-5.3°C 18.9°F-7.3°C 86% 4.0 mph E6.4 kmh E 12.0 mph19.3 kmh 29.74 in1007.1 mb 0.00 in0.0 mm 0.00 in0.0 mm 0.00 in0.0 mm
07:55 PM 22.5°F-5.3°C 18.9°F-7.3°C 86% 4.0 mph E6.4 kmh E 11.0 mph17.7 kmh 29.74 in1007.1 mb 0.00 in0.0 mm 0.00 in0.0 mm 0.00 in0.0 mm
08:00 PM 22.5°F-5.3°C 18.9°F-7.3°C 86% 3.0 mph E4.8 kmh E 7.0 mph11.3 kmh 29.74 in1007.1 mb 0.00 in0.0 mm 0.00 in0.0 mm 0.00 in0.0 mm
08:05 PM 22.5°F-5.3°C 18.9°F-7.3°C 86% 2.0 mph E3.2 kmh E 8.0 mph12.9 kmh 29.74 in1007.1 mb 0.00 in0.0 mm 0.00 in0.0 mm 0.00 in0.0 mm
08:10 PM 22.6°F-5.2°C 19.0°F-7.2°C 86% 3.0 mph E4.8 kmh E 11.0 mph17.7 kmh 29.74 in1007.1 mb 0.00 in0.0 mm 0.00 in0.0 mm 0.00 in0.0 mm
08:15 PM 22.6°F-5.2°C 19.2°F-7.1°C 86% 3.0 mph ENE4.8 kmh ENE 11.0 mph17.7 kmh 29.74 in1007.1 mb 0.00 in0.0 mm 0.00 in0.0 mm 0.00 in0.0 mm
08:20 PM 22.6°F-5.2°C 19.2°F-7.1°C 86% 3.0 mph ENE4.8 kmh ENE 12.0 mph19.3 kmh 29.74 in1007.1 mb 0.00 in0.0 mm 0.00 in0.0 mm 0.00 in0.0 mm
08:25 PM 22.6°F-5.2°C 19.0°F-7.2°C 86% 4.0 mph ENE6.4 kmh ENE 12.0 mph19.3 kmh 29.74 in1007.1 mb 0.00 in0.0 mm 0.00 in0.0 mm 0.00 in0.0 mm
08:30 PM 22.5°F-5.3°C 18.9°F-7.3°C 86% 5.0 mph ENE8.0 kmh ENE 11.0 mph17.7 kmh 29.74 in1007.1 mb 0.00 in0.0 mm 0.00 in0.0 mm 0.00 in0.0 mm
08:35 PM 22.5°F-5.3°C 18.9°F-7.3°C 86% 5.0 mph ENE8.0 kmh ENE 11.0 mph17.7 kmh 29.75 in1007.5 mb 0.00 in0.0 mm 0.00 in0.0 mm 0.00 in0.0 mm
08:40 PM 22.5°F-5.3°C 18.9°F-7.3°C 86% 6.0 mph ENE9.7 kmh ENE 13.0 mph20.9 kmh 29.75 in1007.5 mb 0.00 in0.0 mm 0.00 in0.0 mm 0.00 in0.0 mm
08:45 PM 22.5°F-5.3°C 18.9°F-7.3°C 86% 6.0 mph ENE9.7 kmh ENE 16.0 mph25.7 kmh 29.75 in1007.5 mb 0.00 in0.0 mm 0.00 in0.0 mm 0.00 in0.0 mm
08:50 PM 22.5°F-5.3°C 18.9°F-7.3°C 86% 6.0 mph ENE9.7 kmh ENE 16.0 mph25.7 kmh 29.75 in1007.5 mb 0.00 in0.0 mm 0.00 in0.0 mm 0.00 in0.0 mm
08:55 PM 22.3°F-5.4°C 18.7°F-7.4°C 86% 6.0 mph ENE9.7 kmh ENE 15.0 mph24.1 kmh 29.75 in1007.5 mb 0.00 in0.0 mm 0.00 in0.0 mm 0.00 in0.0 mm
09:00 PM 22.1°F-5.5°C 18.5°F-7.5°C 86% 7.0 mph ENE11.3 kmh ENE 16.0 mph25.7 kmh 29.75 in1007.5 mb 0.00 in0.0 mm 0.00 in0.0 mm 0.00 in0.0 mm
09:05 PM 22.1°F-5.5°C 18.5°F-7.5°C 86% 7.0 mph ENE11.3 kmh ENE 16.0 mph25.7 kmh 29.75 in1007.5 mb 0.00 in0.0 mm 0.00 in0.0 mm 0.00 in0.0 mm
09:10 PM 21.9°F-5.6°C 18.5°F-7.5°C 86% 7.0 mph ENE11.3 kmh ENE 15.0 mph24.1 kmh 29.75 in1007.5 mb 0.00 in0.0 mm 0.00 in0.0 mm 0.00 in0.0 mm
09:15 PM 21.9°F-5.6°C 18.3°F-7.6°C 86% 6.0 mph ENE9.7 kmh ENE 13.0 mph20.9 kmh 29.75 in1007.5 mb 0.00 in0.0 mm 0.00 in0.0 mm 0.00 in0.0 mm
09:20 PM 21.9°F-5.6°C 18.3°F-7.6°C 86% 5.0 mph ENE8.0 kmh ENE 12.0 mph19.3 kmh 29.75 in1007.5 mb 0.00 in0.0 mm 0.00 in0.0 mm 0.00 in0.0 mm
09:25 PM 21.7°F-5.7°C 18.1°F-7.7°C 86% 7.0 mph ENE11.3 kmh ENE 16.0 mph25.7 kmh 29.75 in1007.5 mb 0.00 in0.0 mm 0.00 in0.0 mm 0.00 in0.0 mm
09:30 PM 21.6°F-5.8°C 18.1°F-7.7°C 86% 8.0 mph ENE12.9 kmh ENE 16.0 mph25.7 kmh 29.75 in1007.5 mb 0.00 in0.0 mm 0.00 in0.0 mm 0.00 in0.0 mm
09:35 PM 21.6°F-5.8°C 18.1°F-7.7°C 86% 7.0 mph ENE11.3 kmh ENE 14.0 mph22.5 kmh 29.76 in1007.8 mb 0.00 in0.0 mm 0.00 in0.0 mm 0.00 in0.0 mm
09:40 PM 21.6°F-5.8°C 18.1°F-7.7°C 86% 5.0 mph ENE8.0 kmh ENE 14.0 mph22.5 kmh 29.76 in1007.8 mb 0.00 in0.0 mm 0.00 in0.0 mm 0.00 in0.0 mm
09:45 PM 21.6°F-5.8°C 18.3°F-7.6°C 87% 4.0 mph ENE6.4 kmh ENE 14.0 mph22.5 kmh 29.76 in1007.8 mb 0.00 in0.0 mm 0.00 in0.0 mm 0.00 in0.0 mm
09:50 PM 21.6°F-5.8°C 18.3°F-7.6°C 87% 4.0 mph E6.4 kmh E 10.0 mph16.1 kmh 29.76 in1007.8 mb 0.00 in0.0 mm 0.00 in0.0 mm 0.00 in0.0 mm
09:55 PM 21.4°F-5.9°C 18.0°F-7.8°C 87% 5.0 mph E8.0 kmh E 10.0 mph16.1 kmh 29.76 in1007.8 mb 0.00 in0.0 mm 0.00 in0.0 mm 0.00 in0.0 mm
10:00 PM 21.4°F-5.9°C 18.0°F-7.8°C 87% 5.0 mph E8.0 kmh E 10.0 mph16.1 kmh 29.77 in1008.1 mb 0.00 in0.0 mm 0.00 in0.0 mm 0.00 in0.0 mm
10:05 PM 21.0°F-6.1°C 17.8°F-7.9°C 87% 5.0 mph E8.0 kmh E 14.0 mph22.5 kmh 29.77 in1008.1 mb 0.00 in0.0 mm 0.00 in0.0 mm 0.00 in0.0 mm
10:10 PM 20.8°F-6.2°C 17.6°F-8.0°C 87% 6.0 mph E9.7 kmh E 15.0 mph24.1 kmh 29.77 in1008.1 mb 0.00 in0.0 mm 0.00 in0.0 mm 0.00 in0.0 mm
10:15 PM 20.8°F-6.2°C 18.0°F-7.8°C 88% 5.0 mph E8.0 kmh E 15.0 mph24.1 kmh 29.77 in1008.1 mb 0.00 in0.0 mm 0.00 in0.0 mm 0.00 in0.0 mm
10:20 PM 21.0°F-6.1°C 18.0°F-7.8°C 88% 4.0 mph ENE6.4 kmh ENE 11.0 mph17.7 kmh 29.76 in1007.8 mb 0.00 in0.0 mm 0.00 in0.0 mm 0.00 in0.0 mm
10:25 PM 21.0°F-6.1°C 18.0°F-7.8°C 88% 4.0 mph ENE6.4 kmh ENE 9.0 mph14.5 kmh 29.77 in1008.1 mb 0.00 in0.0 mm 0.00 in0.0 mm 0.00 in0.0 mm
10:30 PM 20.8°F-6.2°C 18.0°F-7.8°C 88% 4.0 mph ENE6.4 kmh ENE 12.0 mph19.3 kmh 29.77 in1008.1 mb 0.00 in0.0 mm 0.00 in0.0 mm 0.00 in0.0 mm
10:35 PM 20.8°F-6.2°C 17.8°F-7.9°C 88% 5.0 mph ENE8.0 kmh ENE 12.0 mph19.3 kmh 29.77 in1008.1 mb 0.00 in0.0 mm 0.00 in0.0 mm 0.00 in0.0 mm
10:40 PM 20.7°F-6.3°C 18.0°F-7.8°C 89% 6.0 mph ENE9.7 kmh ENE 15.0 mph24.1 kmh 29.77 in1008.1 mb 0.00 in0.0 mm 0.00 in0.0 mm 0.00 in0.0 mm
10:45 PM 20.7°F-6.3°C 18.0°F-7.8°C 89% 7.0 mph ENE11.3 kmh ENE 15.0 mph24.1 kmh 29.77 in1008.1 mb 0.00 in0.0 mm 0.00 in0.0 mm 0.00 in0.0 mm
10:50 PM 20.7°F-6.3°C 18.0°F-7.8°C 89% 7.0 mph ENE11.3 kmh ENE 14.0 mph22.5 kmh 29.77 in1008.1 mb 0.00 in0.0 mm 0.00 in0.0 mm 0.00 in0.0 mm
10:55 PM 20.7°F-6.3°C 18.0°F-7.8°C 89% 5.0 mph ENE8.0 kmh ENE 14.0 mph22.5 kmh 29.77 in1008.1 mb 0.00 in0.0 mm 0.00 in0.0 mm 0.00 in0.0 mm
11:00 PM 20.7°F-6.3°C 18.0°F-7.8°C 89% 5.0 mph ENE8.0 kmh ENE 14.0 mph22.5 kmh 29.77 in1008.1 mb 0.00 in0.0 mm 0.00 in0.0 mm 0.00 in0.0 mm
11:05 PM 20.7°F-6.3°C 18.0°F-7.8°C 89% 5.0 mph ENE8.0 kmh ENE 16.0 mph25.7 kmh 29.77 in1008.1 mb 0.00 in0.0 mm 0.00 in0.0 mm 0.00 in0.0 mm
11:10 PM 20.7°F-6.3°C 18.3°F-7.6°C 90% 6.0 mph ENE9.7 kmh ENE 16.0 mph25.7 kmh 29.77 in1008.1 mb 0.00 in0.0 mm 0.00 in0.0 mm 0.00 in0.0 mm
11:15 PM 20.7°F-6.3°C 18.1°F-7.7°C 90% 5.0 mph E8.0 kmh E 15.0 mph24.1 kmh 29.77 in1008.1 mb 0.00 in0.0 mm 0.00 in0.0 mm 0.00 in0.0 mm
11:20 PM 20.7°F-6.3°C 18.1°F-7.7°C 90% 4.0 mph E6.4 kmh E 15.0 mph24.1 kmh 29.77 in1008.1 mb 0.00 in0.0 mm 0.00 in0.0 mm 0.00 in0.0 mm
11:25 PM 20.5°F-6.4°C 18.0°F-7.8°C 90% 5.0 mph E8.0 kmh E 15.0 mph24.1 kmh 29.77 in1008.1 mb 0.00 in0.0 mm 0.00 in0.0 mm 0.00 in0.0 mm
11:30 PM 20.5°F-6.4°C 18.0°F-7.8°C 90% 6.0 mph E9.7 kmh E 15.0 mph24.1 kmh 29.77 in1008.1 mb 0.00 in0.0 mm 0.00 in0.0 mm 0.00 in0.0 mm
11:35 PM 20.5°F-6.4°C 18.0°F-7.8°C 90% 5.0 mph E8.0 kmh E 15.0 mph24.1 kmh 29.78 in1008.5 mb 0.00 in0.0 mm 0.00 in0.0 mm 0.00 in0.0 mm
11:40 PM 20.5°F-6.4°C 18.0°F-7.8°C 90% 3.0 mph E4.8 kmh E 11.0 mph17.7 kmh 29.77 in1008.1 mb 0.00 in0.0 mm 0.00 in0.0 mm 0.00 in0.0 mm
11:45 PM 20.5°F-6.4°C 18.0°F-7.8°C 90% 3.0 mph E4.8 kmh E 9.0 mph14.5 kmh 29.78 in1008.5 mb 0.00 in0.0 mm 0.00 in0.0 mm 0.00 in0.0 mm
11:50 PM 20.5°F-6.4°C 18.0°F-7.8°C 90% 3.0 mph E4.8 kmh E 9.0 mph14.5 kmh 29.78 in1008.5 mb 0.00 in0.0 mm 0.00 in0.0 mm 0.00 in0.0 mm
11:55 PM 20.5°F-6.4°C 18.0°F-7.8°C 90% 4.0 mph E6.4 kmh E 9.0 mph14.5 kmh 29.77 in1008.1 mb 0.00 in0.0 mm 0.00 in0.0 mm 0.00 in0.0 mm